KPSF/PSF METAR and TAF weather

Enter ICAO airport designator
Station Type Date Time Source
KPSF METAR 2022/01/19 19:54 UTC NOAA

KPSF 191954Z AUTO 21008G19KT 10SM CLR 02/M06 A2982 RMK AO2 SLP116 T00221056


Station Type Date Time Source
KPSF Decoded METAR 2022/01/19 19:54 UTC NOAA

PITTSFIELD MUNICIPAL AIRPORT , MA, United States (KPSF) 42-26N 073-17W 355M
Jan 19, 2022 - 02:54 PM EST / 2022.01.19 1954 UTC
Wind: from the SSW (210 degrees) at 9 MPH (8 KT) gusting to 22 MPH (19 KT):0
Visibility: 10 mile(s):0
Sky conditions: clear
Temperature: 36.0 F (2.2 C)
Dew Point: 21.9 F (-5.6 C)
Relative Humidity: 56%
Pressure (altimeter): 29.82 in. Hg (1009 hPa)
ob: KPSF 191954Z AUTO 21008G19KT 10SM CLR 02/M06 A2982 RMK AO2 SLP116 T00221056
cycle: 20

Station Type Date Time Source
KPSF TAF 2022/01/19 18:30 UTC NOAA

TAF KPSF 191728Z 1918/2018 20012G20KT P6SM BKN050 BKN100
FM200000 24010KT P6SM OVC035
FM200700 28012KT 5SM -SN BR OVC025 PROB30 2007/2011 2SM -SN OVC008
FM201200 30008KT P6SM BKN050

Example: see airport list